Time,TemperatureF,DewpointF,PressureIn,WindDirection,WindDirectionDegrees,WindSpeedMPH,WindSpeedGustMPH,Humidity,HourlyPrecipIn,Conditions,Clouds,dailyrainin,SoftwareType,DateUTC
2013-11-03 00:03:00,44.2,42.8,17.70,North,0,0.0,-999.0,94,0.00,,,-99.99,,2013-11-03 08:03:00,
2013-11-03 00:08:00,44.1,42.6,17.70,North,0,0.0,-999.0,94,0.00,,,-99.99,,2013-11-03 08:08:00,
2013-11-03 00:13:00,43.7,42.2,17.70,North,0,0.0,-999.0,94,0.00,,,-99.99,,2013-11-03 08:13:00,
2013-11-03 00:18:00,43.7,42.2,17.70,North,0,0.0,-999.0,94,0.00,,,-99.99,,2013-11-03 08:18:00,
2013-11-03 00:23:00,43.5,42.2,17.70,North,0,0.0,-999.0,94,0.00,,,-99.99,,2013-11-03 08:23:00,
2013-11-03 00:28:00,43.7,42.5,17.70,North,0,0.0,-999.0,95,0.00,,,-99.99,,2013-11-03 08:28:00,
2013-11-03 00:33:00,43.8,42.4,17.70,North,0,0.0,-999.0,94,0.00,,,-99.99,,2013-11-03 08:33:00,
2013-11-03 00:38:00,43.5,42.2,17.70,North,0,0.0,-999.0,95,0.00,,,-99.99,,2013-11-03 08:38:00,
2013-11-03 00:43:00,43.3,42.1,17.70,North,0,0.0,-999.0,95,0.00,,,-99.99,,2013-11-03 08:43:00,
2013-11-03 00:48:00,43.5,42.2,17.70,North,0,0.0,-999.0,95,0.00,,,-99.99,,2013-11-03 08:48:00,
2013-11-03 00:53:00,43.3,42.1,17.70,North,0,0.0,-999.0,95,0.00,,,-99.99,,2013-11-03 08:53:00,
2013-11-03 00:58:00,43.3,42.1,17.70,North,0,0.0,-999.0,95,0.00,,,-99.99,,2013-11-03 08:58:00,
2013-11-03 01:01:00,44.3,43.1,17.71,North,0,0.0,-999.0,95,0.00,,,-99.99,,2013-11-03 09:01:00,
2013-11-03 01:02:00,44.4,43.2,17.71,North,0,0.0,-999.0,95,0.00,,,-99.99,,2013-11-03 09:02:00,
2013-11-03 01:03:00,43.2,42.0,17.70,North,0,0.0,-999.0,95,0.00,,,-99.99,,2013-11-03 09:03:00,
2013-11-03 01:04:00,44.4,43.3,17.71,North,0,0.0,-999.0,95,0.00,,,-99.99,,2013-11-03 09:04:00,
2013-11-03 01:05:00,44.3,43.1,17.71,North,0,0.0,-999.0,95,0.00,,,-99.99,,2013-11-03 09:05:00,
2013-11-03 01:06:00,44.4,43.2,17.71,North,0,0.0,-999.0,95,0.00,,,-99.99,,2013-11-03 09:06:00,
2013-11-03 01:07:00,44.4,43.2,17.71,North,0,0.0,-999.0,95,0.00,,,-99.99,,2013-11-03 09:07:00,
2013-11-03 01:08:00,43.0,41.8,17.71,North,0,0.0,-999.0,95,0.00,,,-99.99,,2013-11-03 09:08:00,
2013-11-03 01:09:00,44.3,43.1,17.71,North,0,0.0,-999.0,95,0.00,,,-99.99,,2013-11-03 09:09:00,
2013-11-03 01:10:00,44.3,43.1,17.71,North,0,0.0,-999.0,95,0.00,,,-99.99,,2013-11-03 09:10:00,
2013-11-03 01:11:00,44.2,43.0,17.71,North,0,0.0,-999.0,95,0.00,,,-99.99,,2013-11-03 09:11:00,
2013-11-03 01:12:00,44.2,42.9,17.71,North,0,0.0,-999.0,95,0.00,,,-99.99,,2013-11-03 09:12:00,
2013-11-03 01:13:00,42.9,41.8,17.71,North,0,0.0,-999.0,95,0.00,,,-99.99,,2013-11-03 09:13:00,
2013-11-03 01:14:00,44.1,42.8,17.71,North,0,0.0,-999.0,95,0.00,,,-99.99,,2013-11-03 09:14:00,
2013-11-03 01:15:00,44.2,42.9,17.71,North,0,0.0,-999.0,94,0.00,,,-99.99,,2013-11-03 09:15:00,
2013-11-03 01:16:00,44.0,42.7,17.71,North,0,0.0,-999.0,95,0.00,,,-99.99,,2013-11-03 09:16:00,
2013-11-03 01:17:00,44.0,42.7,17.71,North,0,0.0,-999.0,95,0.00,,,-99.99,,2013-11-03 09:17:00,
2013-11-03 01:18:00,42.8,41.7,17.71,North,0,0.0,-999.0,95,0.00,,,-99.99,,2013-11-03 09:18:00,
2013-11-03 01:19:00,44.1,42.9,17.71,North,0,0.0,-999.0,95,0.00,,,-99.99,,2013-11-03 09:19:00,
2013-11-03 01:20:00,44.1,42.9,17.71,North,0,0.0,-999.0,95,0.00,,,-99.99,,2013-11-03 09:20:00,
2013-11-03 01:21:00,44.0,42.7,17.71,North,0,0.0,-999.0,94,0.00,,,-99.99,,2013-11-03 09:21:00,
2013-11-03 01:22:00,43.8,42.4,17.71,North,0,0.0,-999.0,94,0.00,,,-99.99,,2013-11-03 09:22:00,
2013-11-03 01:23:00,43.4,42.4,17.71,North,0,0.0,-999.0,96,0.00,,,-99.99,,2013-11-03 09:23:00,
2013-11-03 01:24:00,43.8,42.4,17.71,North,0,0.0,-999.0,94,0.00,,,-99.99,,2013-11-03 09:24:00,
2013-11-03 01:25:00,43.9,42.5,17.71,North,0,0.0,-999.0,94,0.00,,,-99.99,,2013-11-03 09:25:00,
2013-11-03 01:26:00,43.8,42.5,17.71,North,0,0.0,-999.0,94,0.00,,,-99.99,,2013-11-03 09:26:00,
2013-11-03 01:27:00,43.5,42.1,17.71,North,0,0.0,-999.0,94,0.00,,,-99.99,,2013-11-03 09:27:00,
2013-11-03 01:28:00,43.5,42.5,17.71,North,0,0.0,-999.0,96,0.00,,,-99.99,,2013-11-03 09:28:00,
2013-11-03 01:29:00,43.8,42.4,17.71,North,0,0.0,-999.0,94,0.00,,,-99.99,,2013-11-03 09:29:00,
2013-11-03 01:30:00,43.8,42.4,17.71,North,0,0.0,-999.0,94,0.00,,,-99.99,,2013-11-03 09:30:00,
2013-11-03 01:31:00,43.8,42.5,17.71,North,0,0.0,-999.0,95,0.00,,,-99.99,,2013-11-03 09:31:00,
2013-11-03 01:32:00,44.0,42.8,17.71,North,0,0.0,-999.0,95,0.00,,,-99.99,,2013-11-03 09:32:00,
2013-11-03 01:33:00,43.5,42.5,17.71,North,0,0.0,-999.0,96,0.00,,,-99.99,,2013-11-03 09:33:00,
2013-11-03 01:34:00,44.0,42.6,17.71,North,0,0.0,-999.0,94,0.00,,,-99.99,,2013-11-03 09:34:00,
2013-11-03 01:35:00,43.8,42.4,17.71,North,0,0.0,-999.0,94,0.00,,,-99.99,,2013-11-03 09:35:00,
2013-11-03 01:36:00,44.0,42.7,17.71,North,0,0.0,-999.0,95,0.00,,,-99.99,,2013-11-03 09:36:00,
2013-11-03 01:37:00,44.0,42.7,17.71,North,0,0.0,-999.0,95,0.00,,,-99.99,,2013-11-03 09:37:00,
2013-11-03 01:38:00,43.3,42.2,17.71,North,0,0.0,-999.0,95,0.00,,,-99.99,,2013-11-03 09:38:00,
2013-11-03 01:39:00,44.1,42.8,17.71,North,0,0.0,-999.0,95,0.00,,,-99.99,,2013-11-03 09:39:00,
2013-11-03 01:40:00,44.3,43.0,17.71,North,0,0.0,-999.0,95,0.00,,,-99.99,,2013-11-03 09:40:00,
2013-11-03 01:41:00,44.1,42.8,17.71,North,0,0.0,-999.0,95,0.00,,,-99.99,,2013-11-03 09:41:00,
2013-11-03 01:42:00,44.1,42.8,17.71,North,0,0.0,-999.0,95,0.00,,,-99.99,,2013-11-03 09:42:00,
2013-11-03 01:43:00,43.5,42.5,17.71,North,0,0.0,-999.0,96,0.00,,,-99.99,,2013-11-03 09:43:00,
2013-11-03 01:44:00,44.0,42.5,17.71,North,0,0.0,-999.0,94,0.00,,,-99.99,,2013-11-03 09:44:00,
2013-11-03 01:45:00,43.9,42.6,17.71,North,0,0.0,-999.0,94,0.00,,,-99.99,,2013-11-03 09:45:00,
2013-11-03 01:46:00,44.1,42.8,17.71,North,0,0.0,-999.0,95,0.00,,,-99.99,,2013-11-03 09:46:00,
2013-11-03 01:47:00,44.1,42.8,17.71,North,0,0.0,-999.0,94,0.00,,,-99.99,,2013-11-03 09:47:00,
2013-11-03 01:48:00,43.7,42.6,17.71,North,0,0.0,-999.0,95,0.00,,,-99.99,,2013-11-03 09:48:00,
2013-11-03 01:49:00,44.0,42.7,17.71,North,0,0.0,-999.0,95,0.00,,,-99.99,,2013-11-03 09:49:00,
2013-11-03 01:50:00,44.0,42.8,17.71,North,0,0.0,-999.0,95,0.00,,,-99.99,,2013-11-03 09:50:00,
2013-11-03 01:51:00,44.2,43.0,17.71,North,0,0.0,-999.0,95,0.00,,,-99.99,,2013-11-03 09:51:00,
2013-11-03 01:52:00,44.1,42.8,17.71,North,0,0.0,-999.0,95,0.00,,,-99.99,,2013-11-03 09:52:00,
2013-11-03 01:53:00,44.1,43.1,17.71,North,0,0.0,-999.0,96,0.00,,,-99.99,,2013-11-03 09:53:00,
2013-11-03 01:54:00,44.4,43.1,17.71,North,0,0.0,-999.0,95,0.00,,,-99.99,,2013-11-03 09:54:00,
2013-11-03 01:55:00,44.4,43.1,17.71,North,0,0.0,-999.0,95,0.00,,,-99.99,,2013-11-03 09:55:00,
2013-11-03 01:56:00,44.3,42.9,17.71,North,0,0.0,-999.0,94,0.00,,,-99.99,,2013-11-03 09:56:00,
2013-11-03 01:57:00,44.1,42.6,17.71,North,0,0.0,-999.0,94,0.00,,,-99.99,,2013-11-03 09:57:00,
2013-11-03 01:58:00,44.5,43.4,17.71,North,0,0.0,-999.0,95,0.00,,,-99.99,,2013-11-03 09:58:00,
2013-11-03 01:59:00,44.1,42.7,17.71,North,0,0.0,-999.0,94,0.00,,,-99.99,,2013-11-03 09:59:00,
2013-11-03 01:00:00,44.0,42.5,17.81,North,0,0.0,-999.0,94,0.00,,,-99.99,,2013-11-03 10:00:00,
2013-11-03 01:01:00,44.0,42.6,17.81,North,0,0.0,-999.0,94,0.00,,,-99.99,,2013-11-03 10:01:00,
2013-11-03 01:02:00,44.1,42.8,17.81,North,0,0.0,-999.0,94,0.00,,,-99.99,,2013-11-03 10:02:00,
2013-11-03 01:03:00,44.2,42.8,17.81,North,0,0.0,-999.0,94,0.00,,,-99.99,,2013-11-03 10:03:00,
2013-11-03 01:04:00,44.3,43.0,17.81,North,0,0.0,-999.0,94,0.00,,,-99.99,,2013-11-03 10:04:00,
2013-11-03 01:05:00,44.1,42.7,17.81,North,0,0.0,-999.0,94,0.00,,,-99.99,,2013-11-03 10:05:00,
2013-11-03 01:06:00,44.0,42.5,17.81,North,0,0.0,-999.0,94,0.00,,,-99.99,,2013-11-03 10:06:00,
2013-11-03 01:07:00,44.1,42.7,17.81,North,0,0.0,-999.0,94,0.00,,,-99.99,,2013-11-03 10:07:00,
2013-11-03 01:08:00,44.1,42.7,17.81,North,0,0.0,-999.0,94,0.00,,,-99.99,,2013-11-03 10:08:00,
2013-11-03 01:09:00,44.1,42.6,17.81,North,0,0.0,-999.0,94,0.00,,,-99.99,,2013-11-03 10:09:00,
2013-11-03 01:10:00,44.1,42.6,17.81,North,0,0.0,-999.0,94,0.00,,,-99.99,,2013-11-03 10:10:00,
2013-11-03 01:11:00,44.0,42.5,17.81,North,0,0.0,-999.0,94,0.00,,,-99.99,,2013-11-03 10:11:00,
2013-11-03 01:12:00,44.0,42.7,17.81,North,0,0.0,-999.0,94,0.00,,,-99.99,,2013-11-03 10:12:00,
2013-11-03 01:13:00,44.1,42.6,17.81,North,0,0.0,-999.0,94,0.00,,,-99.99,,2013-11-03 10:13:00,
2013-11-03 01:14:00,44.1,42.6,17.81,North,0,0.0,-999.0,94,0.00,,,-99.99,,2013-11-03 10:14:00,
2013-11-03 01:15:00,44.2,42.7,17.81,North,0,0.0,-999.0,94,0.00,,,-99.99,,2013-11-03 10:15:00,
2013-11-03 01:16:00,44.0,42.6,17.81,North,0,0.0,-999.0,94,0.00,,,-99.99,,2013-11-03 10:16:00,
2013-11-03 01:17:00,44.1,42.7,17.81,North,0,0.0,-999.0,94,0.00,,,-99.99,,2013-11-03 10:17:00,
2013-11-03 01:19:00,44.1,42.6,17.81,North,0,0.0,-999.0,94,0.00,,,-99.99,,2013-11-03 10:19:00,
2013-11-03 01:20:00,44.1,42.6,17.81,North,0,0.0,-999.0,94,0.00,,,-99.99,,2013-11-03 10:20:00,
2013-11-03 01:21:00,44.0,42.5,17.81,North,0,0.0,-999.0,94,0.00,,,-99.99,,2013-11-03 10:21:00,
2013-11-03 01:22:00,44.1,42.6,17.81,North,0,0.0,-999.0,94,0.00,,,-99.99,,2013-11-03 10:22:00,
2013-11-03 01:23:00,44.0,42.5,17.81,North,0,0.0,-999.0,94,0.00,,,-99.99,,2013-11-03 10:23:00,
2013-11-03 01:24:00,44.0,42.5,17.81,North,0,0.0,-999.0,94,0.00,,,-99.99,,2013-11-03 10:24:00,
2013-11-03 01:25:00,43.9,42.4,17.81,North,0,0.0,-999.0,94,0.00,,,-99.99,,2013-11-03 10:25:00,
2013-11-03 01:26:00,43.9,42.4,17.81,North,0,0.0,-999.0,94,0.00,,,-99.99,,2013-11-03 10:26:00,
2013-11-03 01:28:00,43.8,42.2,17.81,North,0,0.0,-999.0,94,0.00,,,-99.99,,2013-11-03 10:28:00,
2013-11-03 01:29:00,43.7,42.1,17.81,North,0,0.0,-999.0,94,0.00,,,-99.99,,2013-11-03 10:29:00,
2013-11-03 01:30:00,43.6,42.0,17.81,North,0,0.0,-999.0,93,0.00,,,-99.99,,2013-11-03 10:30:00,
2013-11-03 01:31:00,43.5,41.9,17.81,North,0,0.0,-999.0,93,0.00,,,-99.99,,2013-11-03 10:31:00,
2013-11-03 01:32:00,43.6,41.9,17.81,North,0,0.0,-999.0,93,0.00,,,-99.99,,2013-11-03 10:32:00,
2013-11-03 01:35:00,43.2,41.6,17.81,North,0,0.0,-999.0,94,0.00,,,-99.99,,2013-11-03 10:35:00,
2013-11-03 01:36:00,43.2,41.6,17.81,North,0,0.0,-999.0,94,0.00,,,-99.99,,2013-11-03 10:36:00,
2013-11-03 01:37:00,43.0,41.5,17.81,North,0,0.0,-999.0,94,0.00,,,-99.99,,2013-11-03 10:37:00,
2013-11-03 01:38:00,43.1,41.5,17.81,North,0,0.0,-999.0,94,0.00,,,-99.99,,2013-11-03 10:38:00,
2013-11-03 01:40:00,43.0,41.5,17.81,North,0,0.0,-999.0,94,0.00,,,-99.99,,2013-11-03 10:40:00,
2013-11-03 01:41:00,42.8,41.2,17.81,North,0,0.0,-999.0,94,0.00,,,-99.99,,2013-11-03 10:41:00,
2013-11-03 01:42:00,42.7,41.2,17.81,North,0,0.0,-999.0,94,0.00,,,-99.99,,2013-11-03 10:42:00,
2013-11-03 01:44:00,42.7,41.2,17.81,North,0,0.0,-999.0,94,0.00,,,-99.99,,2013-11-03 10:44:00,
2013-11-03 01:45:00,42.6,41.2,17.81,North,0,0.0,-999.0,94,0.00,,,-99.99,,2013-11-03 10:45:00,
2013-11-03 01:47:00,42.6,41.2,17.81,North,0,0.0,-999.0,94,0.00,,,-99.99,,2013-11-03 10:47:00,
2013-11-03 01:48:00,42.4,41.0,17.81,North,0,0.0,-999.0,94,0.00,,,-99.99,,2013-11-03 10:48:00,
2013-11-03 01:49:00,42.4,40.9,17.81,North,0,0.0,-999.0,94,0.00,,,-99.99,,2013-11-03 10:49:00,
2013-11-03 01:50:00,42.4,41.0,17.81,North,0,0.0,-999.0,94,0.00,,,-99.99,,2013-11-03 10:50:00,
2013-11-03 01:51:00,42.5,41.1,17.81,North,0,0.0,-999.0,94,0.00,,,-99.99,,2013-11-03 10:51:00,
2013-11-03 01:53:00,42.5,41.1,17.81,North,0,0.0,-999.0,94,0.00,,,-99.99,,2013-11-03 10:53:00,
2013-11-03 01:54:00,42.4,41.1,17.81,North,0,0.0,-999.0,94,0.00,,,-99.99,,2013-11-03 10:54:00,
2013-11-03 01:55:00,42.5,41.2,17.81,North,0,0.0,-999.0,94,0.00,,,-99.99,,2013-11-03 10:55:00,
2013-11-03 01:57:00,42.7,41.4,17.81,North,0,0.0,-999.0,95,0.00,,,-99.99,,2013-11-03 10:57:00,
2013-11-03 01:59:00,42.7,41.2,17.81,North,0,0.0,-999.0,94,0.00,,,-99.99,,2013-11-03 10:59:00,
2013-11-03 02:04:00,42.1,40.7,17.79,North,0,0.0,-999.0,94,0.00,,,-99.99,,2013-11-03 11:04:00,
2013-11-03 02:08:00,42.2,40.8,17.79,North,0,0.0,-999.0,94,0.00,,,-99.99,,2013-11-03 11:08:00,
2013-11-03 02:09:00,42.0,40.6,17.79,North,0,0.0,-999.0,94,0.00,,,-99.99,,2013-11-03 11:09:00,
2013-11-03 02:14:00,41.9,40.5,17.79,North,0,0.0,-999.0,94,0.00,,,-99.99,,2013-11-03 11:14:00,
2013-11-03 02:18:00,44.2,42.7,17.81,North,0,0.0,-999.0,94,0.00,,,-99.99,,2013-11-03 11:18:00,
2013-11-03 02:27:00,44.0,42.4,17.81,North,0,0.0,-999.0,94,0.00,,,-99.99,,2013-11-03 11:27:00,
2013-11-03 02:30:00,40.8,39.4,17.79,North,0,0.0,-999.0,94,0.00,,,-99.99,,2013-11-03 11:30:00,
2013-11-03 02:33:00,43.3,41.7,17.81,North,0,0.0,-999.0,93,0.00,,,-99.99,,2013-11-03 11:33:00,
2013-11-03 02:39:00,43.0,41.5,17.81,North,0,0.0,-999.0,94,0.00,,,-99.99,,2013-11-03 11:39:00,
2013-11-03 02:45:00,40.8,39.6,17.79,North,0,0.0,-999.0,95,0.00,,,-99.99,,2013-11-03 11:45:00,
2013-11-03 02:46:00,42.6,41.2,17.81,North,0,0.0,-999.0,94,0.00,,,-99.99,,2013-11-03 11:46:00,
2013-11-03 02:47:00,40.9,39.7,17.79,North,0,0.0,-999.0,95,0.00,,,-99.99,,2013-11-03 11:47:00,
2013-11-03 02:50:00,40.9,39.6,17.79,North,0,0.0,-999.0,95,0.00,,,-99.99,,2013-11-03 11:50:00,
2013-11-03 02:52:00,42.4,41.0,17.81,North,0,0.0,-999.0,94,0.00,,,-99.99,,2013-11-03 11:52:00,
2013-11-03 02:58:00,42.7,41.4,17.81,North,0,0.0,-999.0,95,0.00,,,-99.99,,2013-11-03 11:58:00,
2013-11-03 03:02:00,41.0,39.9,17.76,North,0,0.0,-999.0,95,0.00,,,-99.99,,2013-11-03 12:02:00,
2013-11-03 03:03:00,42.3,40.9,17.79,North,0,0.0,-999.0,94,0.00,,,-99.99,,2013-11-03 12:03:00,
2013-11-03 03:10:00,41.9,40.5,17.79,North,0,0.0,-999.0,94,0.00,,,-99.99,,2013-11-03 12:10:00,
2013-11-03 03:15:00,41.9,40.5,17.79,North,0,0.0,-999.0,94,0.00,,,-99.99,,2013-11-03 12:15:00,
2013-11-03 03:20:00,41.6,40.2,17.79,North,0,0.0,-999.0,94,0.00,,,-99.99,,2013-11-03 12:20:00,
2013-11-03 03:25:00,41.2,39.8,17.79,North,0,0.0,-999.0,94,0.00,,,-99.99,,2013-11-03 12:25:00,
2013-11-03 03:31:00,40.8,39.5,17.79,North,0,0.0,-999.0,94,0.00,,,-99.99,,2013-11-03 12:31:00,
2013-11-03 03:36:00,41.0,39.7,17.79,North,0,0.0,-999.0,95,0.00,,,-99.99,,2013-11-03 12:36:00,
2013-11-03 03:41:00,41.1,39.9,17.79,North,0,0.0,-999.0,95,0.00,,,-99.99,,2013-11-03 12:41:00,
2013-11-03 03:48:00,40.9,39.7,17.79,North,0,0.0,-999.0,95,0.00,,,-99.99,,2013-11-03 12:48:00,
2013-11-03 03:53:00,40.7,39.5,17.79,North,0,0.0,-999.0,95,0.00,,,-99.99,,2013-11-03 12:53:00,
2013-11-03 03:58:00,40.7,39.5,17.79,North,0,0.0,-999.0,95,0.00,,,-99.99,,2013-11-03 12:58:00,
2013-11-03 04:03:00,41.3,40.2,17.76,North,0,0.0,-999.0,96,0.00,,,-99.99,,2013-11-03 13:03:00,
2013-11-03 04:08:00,41.3,40.3,17.76,North,0,0.0,-999.0,96,0.00,,,-99.99,,2013-11-03 13:08:00,
2013-11-03 04:13:00,41.9,40.9,17.76,North,0,0.0,-999.0,96,0.00,,,-99.99,,2013-11-03 13:13:00,
2013-11-03 04:18:00,42.0,41.0,17.76,North,0,0.0,-999.0,96,0.00,,,-99.99,,2013-11-03 13:18:00,
2013-11-03 04:23:00,42.4,41.3,17.76,North,0,0.0,-999.0,95,0.00,,,-99.99,,2013-11-03 13:23:00,
2013-11-03 04:28:00,42.7,41.6,17.76,North,0,0.0,-999.0,95,0.00,,,-99.99,,2013-11-03 13:28:00,
2013-11-03 04:33:00,42.9,41.8,17.76,North,0,0.0,-999.0,95,0.00,,,-99.99,,2013-11-03 13:33:00,
2013-11-03 04:38:00,43.2,42.0,17.76,North,0,0.0,-999.0,95,0.00,,,-99.99,,2013-11-03 13:38:00,
2013-11-03 04:43:00,43.5,42.2,17.76,North,0,0.0,-999.0,95,0.00,,,-99.99,,2013-11-03 13:43:00,
2013-11-03 04:48:00,43.6,42.3,17.76,North,0,0.0,-999.0,95,0.00,,,-99.99,,2013-11-03 13:48:00,
2013-11-03 04:53:00,43.3,41.9,17.76,North,0,0.0,-999.0,94,0.00,,,-99.99,,2013-11-03 13:53:00,
2013-11-03 04:58:00,43.6,42.1,17.76,North,0,0.0,-999.0,94,0.00,,,-99.99,,2013-11-03 13:58:00,
2013-11-03 05:03:00,43.5,42.1,17.73,North,0,0.0,-999.0,94,0.00,,,-99.99,,2013-11-03 14:03:00,
2013-11-03 05:08:00,43.5,42.0,17.73,North,0,0.0,-999.0,94,0.00,,,-99.99,,2013-11-03 14:08:00,
2013-11-03 05:13:00,43.7,42.2,17.73,North,0,0.0,-999.0,94,0.00,,,-99.99,,2013-11-03 14:13:00,
2013-11-03 05:18:00,44.0,42.5,17.73,North,0,0.0,-999.0,94,0.00,,,-99.99,,2013-11-03 14:18:00,
2013-11-03 05:23:00,43.9,42.3,17.73,North,0,0.0,-999.0,94,0.00,,,-99.99,,2013-11-03 14:23:00,
2013-11-03 05:28:00,43.7,42.0,17.73,North,0,0.0,-999.0,93,0.00,,,-99.99,,2013-11-03 14:28:00,
2013-11-03 05:33:00,43.8,42.2,17.73,North,0,0.0,-999.0,94,0.00,,,-99.99,,2013-11-03 14:33:00,
2013-11-03 05:38:00,43.7,42.1,17.73,North,0,0.0,-999.0,93,0.00,,,-99.99,,2013-11-03 14:38:00,
2013-11-03 05:43:00,43.7,42.0,17.73,North,0,0.0,-999.0,93,0.00,,,-99.99,,2013-11-03 14:43:00,
2013-11-03 05:48:00,44.1,42.5,17.73,North,0,0.0,-999.0,93,0.00,,,-99.99,,2013-11-03 14:48:00,
2013-11-03 05:53:00,43.9,42.1,17.73,North,0,0.0,-999.0,93,0.00,,,-99.99,,2013-11-03 14:53:00,
2013-11-03 05:58:00,44.0,42.2,17.73,North,0,0.0,-999.0,93,0.00,,,-99.99,,2013-11-03 14:58:00,
2013-11-03 06:03:00,44.3,42.5,17.71,North,0,0.0,-999.0,93,0.00,,,-99.99,,2013-11-03 15:03:00,
2013-11-03 06:08:00,43.8,42.0,17.71,North,0,0.0,-999.0,92,0.00,,,-99.99,,2013-11-03 15:08:00,
2013-11-03 06:13:00,44.2,42.3,17.71,North,0,0.0,-999.0,92,0.00,,,-99.99,,2013-11-03 15:13:00,
2013-11-03 06:18:00,43.8,41.8,17.71,North,0,0.0,-999.0,92,0.00,,,-99.99,,2013-11-03 15:18:00,
2013-11-03 06:23:00,43.8,41.9,17.71,North,0,0.0,-999.0,92,0.00,,,-99.99,,2013-11-03 15:23:00,
2013-11-03 06:28:00,43.7,41.6,17.71,North,0,0.0,-999.0,92,0.00,,,-99.99,,2013-11-03 15:28:00,
2013-11-03 06:33:00,43.7,41.6,17.71,North,0,0.0,-999.0,92,0.00,,,-99.99,,2013-11-03 15:33:00,
2013-11-03 06:38:00,43.6,41.4,17.71,North,0,0.0,-999.0,91,0.00,,,-99.99,,2013-11-03 15:38:00,
2013-11-03 06:43:00,43.5,41.2,17.71,North,0,0.0,-999.0,91,0.00,,,-99.99,,2013-11-03 15:43:00,
2013-11-03 06:48:00,43.8,41.6,17.71,North,0,0.0,-999.0,91,0.00,,,-99.99,,2013-11-03 15:48:00,
2013-11-03 06:53:00,43.7,41.4,17.71,North,0,0.0,-999.0,91,0.00,,,-99.99,,2013-11-03 15:53:00,
2013-11-03 06:58:00,43.3,40.8,17.71,North,0,0.0,-999.0,90,0.00,,,-99.99,,2013-11-03 15:58:00,
2013-11-03 07:03:00,43.0,40.7,17.70,North,0,0.0,-999.0,91,0.00,,,-99.99,,2013-11-03 16:03:00,
2013-11-03 07:08:00,42.8,40.6,17.70,North,0,0.0,-999.0,91,0.00,,,-99.99,,2013-11-03 16:08:00,
2013-11-03 07:13:00,43.0,40.9,17.70,North,0,0.0,-999.0,92,0.00,,,-99.99,,2013-11-03 16:13:00,
2013-11-03 07:18:00,43.3,41.2,17.70,North,0,0.0,-999.0,92,0.00,,,-99.99,,2013-11-03 16:18:00,
2013-11-03 07:23:00,43.5,41.5,17.70,North,0,0.0,-999.0,92,0.00,,,-99.99,,2013-11-03 16:23:00,
2013-11-03 07:28:00,43.2,41.0,17.70,North,0,0.0,-999.0,91,0.00,,,-99.99,,2013-11-03 16:28:00,
2013-11-03 07:33:00,43.3,41.2,17.70,North,0,0.0,-999.0,92,0.00,,,-99.99,,2013-11-03 16:33:00,
2013-11-03 07:38:00,43.4,41.2,17.70,North,0,0.0,-999.0,91,0.00,,,-99.99,,2013-11-03 16:38:00,
2013-11-03 07:43:00,43.5,41.3,17.70,North,0,0.0,-999.0,91,0.00,,,-99.99,,2013-11-03 16:43:00,
2013-11-03 07:48:00,43.5,41.3,17.70,North,0,0.0,-999.0,91,0.00,,,-99.99,,2013-11-03 16:48:00,
2013-11-03 07:53:00,43.3,40.9,17.70,North,0,0.0,-999.0,91,0.00,,,-99.99,,2013-11-03 16:53:00,
2013-11-03 07:58:00,43.1,40.8,17.70,North,0,0.0,-999.0,91,0.00,,,-99.99,,2013-11-03 16:58:00,
2013-11-03 08:03:00,43.3,41.0,17.68,North,0,0.0,-999.0,91,0.00,,,-99.99,,2013-11-03 17:03:00,
2013-11-03 08:09:00,43.3,41.0,17.68,North,0,0.0,-999.0,91,0.00,,,-99.99,,2013-11-03 17:09:00,
2013-11-03 08:14:00,43.0,40.7,17.68,North,0,0.0,-999.0,91,0.00,,,-99.99,,2013-11-03 17:14:00,
2013-11-03 08:19:00,43.6,41.4,17.68,North,0,0.0,-999.0,91,0.00,,,-99.99,,2013-11-03 17:19:00,
2013-11-03 08:24:00,43.5,41.1,17.68,North,0,0.0,-999.0,91,0.00,,,-99.99,,2013-11-03 17:24:00,
2013-11-03 08:29:00,43.0,40.6,17.68,North,0,0.0,-999.0,90,0.00,,,-99.99,,2013-11-03 17:29:00,
2013-11-03 08:34:00,43.2,40.8,17.68,North,0,0.0,-999.0,91,0.00,,,-99.99,,2013-11-03 17:34:00,
2013-11-03 08:39:00,43.4,41.3,17.68,North,0,0.0,-999.0,92,0.00,,,-99.99,,2013-11-03 17:39:00,
2013-11-03 08:44:00,43.7,41.4,17.68,North,0,0.0,-999.0,91,0.00,,,-99.99,,2013-11-03 17:44:00,
2013-11-03 08:49:00,43.5,41.1,17.68,North,0,0.0,-999.0,91,0.00,,,-99.99,,2013-11-03 17:49:00,
2013-11-03 08:54:00,43.3,40.9,17.68,North,0,0.0,-999.0,91,0.00,,,-99.99,,2013-11-03 17:54:00,
2013-11-03 08:59:00,43.5,41.2,17.68,North,0,0.0,-999.0,91,0.00,,,-99.99,,2013-11-03 17:59:00,
2013-11-03 09:04:00,43.7,41.3,17.67,North,0,0.0,-999.0,91,0.00,,,-99.99,,2013-11-03 18:04:00,
2013-11-03 09:09:00,43.3,41.0,17.67,North,0,0.0,-999.0,91,0.00,,,-99.99,,2013-11-03 18:09:00,
2013-11-03 09:14:00,43.4,41.2,17.67,North,0,0.0,-999.0,91,0.00,,,-99.99,,2013-11-03 18:14:00,
2013-11-03 09:19:00,43.5,41.4,17.67,North,0,0.0,-999.0,92,0.00,,,-99.99,,2013-11-03 18:19:00,
2013-11-03 09:24:00,43.5,41.3,17.67,North,0,0.0,-999.0,91,0.00,,,-99.99,,2013-11-03 18:24:00,
2013-11-03 09:29:00,43.6,41.5,17.67,North,0,0.0,-999.0,92,0.00,,,-99.99,,2013-11-03 18:29:00,
2013-11-03 09:34:00,43.2,40.8,17.67,North,0,0.0,-999.0,91,0.00,,,-99.99,,2013-11-03 18:34:00,
2013-11-03 09:39:00,43.5,41.4,17.67,North,0,0.0,-999.0,92,0.00,,,-99.99,,2013-11-03 18:39:00,
2013-11-03 09:44:00,43.2,41.1,17.67,North,0,0.0,-999.0,91,0.00,,,-99.99,,2013-11-03 18:44:00,
2013-11-03 09:49:00,43.3,41.2,17.67,North,0,0.0,-999.0,92,0.00,,,-99.99,,2013-11-03 18:49:00,
2013-11-03 09:54:00,43.4,41.3,17.67,North,0,0.0,-999.0,92,0.00,,,-99.99,,2013-11-03 18:54:00,
2013-11-03 09:59:00,43.5,41.4,17.67,North,0,0.0,-999.0,92,0.00,,,-99.99,,2013-11-03 18:59:00,
2013-11-03 10:04:00,43.7,41.5,17.66,North,0,0.0,-999.0,91,0.00,,,-99.99,,2013-11-03 19:04:00,
2013-11-03 10:09:00,43.7,41.6,17.66,North,0,0.0,-999.0,92,0.00,,,-99.99,,2013-11-03 19:09:00,
2013-11-03 10:14:00,43.8,41.6,17.66,North,0,0.0,-999.0,92,0.00,,,-99.99,,2013-11-03 19:14:00,
2013-11-03 10:19:00,43.7,41.4,17.66,North,0,0.0,-999.0,91,0.00,,,-99.99,,2013-11-03 19:19:00,
2013-11-03 10:24:00,43.6,41.3,17.66,North,0,0.0,-999.0,91,0.00,,,-99.99,,2013-11-03 19:24:00,
2013-11-03 10:29:00,43.8,41.5,17.66,North,0,0.0,-999.0,91,0.00,,,-99.99,,2013-11-03 19:29:00,
2013-11-03 10:34:00,43.4,41.4,17.66,North,0,0.0,-999.0,92,0.00,,,-99.99,,2013-11-03 19:34:00,
2013-11-03 10:39:00,43.6,41.5,17.66,North,0,0.0,-999.0,92,0.00,,,-99.99,,2013-11-03 19:39:00,
2013-11-03 10:44:00,43.3,41.1,17.66,North,0,0.0,-999.0,91,0.00,,,-99.99,,2013-11-03 19:44:00,
2013-11-03 10:49:00,43.7,41.7,17.66,North,0,0.0,-999.0,92,0.00,,,-99.99,,2013-11-03 19:49:00,
2013-11-03 10:54:00,43.9,41.7,17.66,North,0,0.0,-999.0,91,0.00,,,-99.99,,2013-11-03 19:54:00,
2013-11-03 10:59:00,43.7,41.3,17.66,North,0,0.0,-999.0,91,0.00,,,-99.99,,2013-11-03 19:59:00,
2013-11-03 11:04:00,43.9,41.5,17.66,North,0,0.0,-999.0,91,0.00,,,-99.99,,2013-11-03 20:04:00,
2013-11-03 11:09:00,43.6,41.4,17.66,North,0,0.0,-999.0,91,0.00,,,-99.99,,2013-11-03 20:09:00,
2013-11-03 11:14:00,43.7,41.4,17.66,North,0,0.0,-999.0,91,0.00,,,-99.99,,2013-11-03 20:14:00,
2013-11-03 11:19:00,43.7,41.4,17.66,North,0,0.0,-999.0,91,0.00,,,-99.99,,2013-11-03 20:19:00,
2013-11-03 11:24:00,43.8,41.7,17.66,North,0,0.0,-999.0,92,0.00,,,-99.99,,2013-11-03 20:24:00,
2013-11-03 11:29:00,44.3,42.2,17.66,North,0,0.0,-999.0,92,0.00,,,-99.99,,2013-11-03 20:29:00,
2013-11-03 11:34:00,44.1,42.0,17.66,North,0,0.0,-999.0,92,0.00,,,-99.99,,2013-11-03 20:34:00,
2013-11-03 11:39:00,44.1,42.2,17.66,North,0,0.0,-999.0,92,0.00,,,-99.99,,2013-11-03 20:39:00,
2013-11-03 11:44:00,44.0,42.0,17.66,North,0,0.0,-999.0,92,0.00,,,-99.99,,2013-11-03 20:44:00,
2013-11-03 11:49:00,44.1,42.2,17.66,North,0,0.0,-999.0,92,0.00,,,-99.99,,2013-11-03 20:49:00,
2013-11-03 11:54:00,44.2,42.3,17.66,North,0,0.0,-999.0,92,0.00,,,-99.99,,2013-11-03 20:54:00,
2013-11-03 11:59:00,44.2,42.2,17.66,North,0,0.0,-999.0,92,0.00,,,-99.99,,2013-11-03 20:59:00,
2013-11-03 12:04:00,44.2,42.0,17.65,North,0,0.0,-999.0,91,0.00,,,-99.99,,2013-11-03 21:04:00,
2013-11-03 12:09:00,44.1,42.2,17.65,North,0,0.0,-999.0,92,0.00,,,-99.99,,2013-11-03 21:09:00,
2013-11-03 12:14:00,44.7,42.8,17.65,North,0,0.0,-999.0,93,0.00,,,-99.99,,2013-11-03 21:14:00,
2013-11-03 12:19:00,44.5,42.5,17.65,North,0,0.0,-999.0,92,0.00,,,-99.99,,2013-11-03 21:19:00,
2013-11-03 12:24:00,44.4,42.3,17.65,North,0,0.0,-999.0,92,0.00,,,-99.99,,2013-11-03 21:24:00,
2013-11-03 12:29:00,44.0,42.0,17.65,North,0,0.0,-999.0,92,0.00,,,-99.99,,2013-11-03 21:29:00,
2013-11-03 12:34:00,44.0,42.2,17.65,North,0,0.0,-999.0,93,0.00,,,-99.99,,2013-11-03 21:34:00,
2013-11-03 12:39:00,44.3,42.7,17.65,North,0,0.0,-999.0,94,0.00,,,-99.99,,2013-11-03 21:39:00,
2013-11-03 12:44:00,44.0,42.5,17.65,North,0,0.0,-999.0,94,0.00,,,-99.99,,2013-11-03 21:44:00,
2013-11-03 12:49:00,43.9,42.2,17.65,North,0,0.0,-999.0,93,0.00,,,-99.99,,2013-11-03 21:49:00,
2013-11-03 12:54:00,43.8,42.2,17.65,North,0,0.0,-999.0,94,0.00,,,-99.99,,2013-11-03 21:54:00,
2013-11-03 12:59:00,43.8,42.3,17.65,North,0,0.0,-999.0,94,0.00,,,-99.99,,2013-11-03 21:59:00,
2013-11-03 13:04:00,44.0,42.5,17.66,North,0,0.0,-999.0,94,0.00,,,-99.99,,2013-11-03 22:04:00,
2013-11-03 13:09:00,44.0,42.5,17.66,North,0,0.0,-999.0,94,0.00,,,-99.99,,2013-11-03 22:09:00,
2013-11-03 13:14:00,44.5,43.0,17.66,North,0,0.0,-999.0,94,0.00,,,-99.99,,2013-11-03 22:14:00,
2013-11-03 13:19:00,43.8,42.1,17.66,North,0,0.0,-999.0,93,0.00,,,-99.99,,2013-11-03 22:19:00,
2013-11-03 13:24:00,44.3,42.6,17.66,North,0,0.0,-999.0,93,0.00,,,-99.99,,2013-11-03 22:24:00,
2013-11-03 13:29:00,44.4,42.8,17.66,North,0,0.0,-999.0,94,0.00,,,-99.99,,2013-11-03 22:29:00,
2013-11-03 13:34:00,43.9,42.2,17.66,North,0,0.0,-999.0,93,0.00,,,-99.99,,2013-11-03 22:34:00,
2013-11-03 13:39:00,43.8,42.1,17.66,North,0,0.0,-999.0,93,0.00,,,-99.99,,2013-11-03 22:39:00,
2013-11-03 13:44:00,44.1,42.7,17.66,North,0,0.0,-999.0,94,0.00,,,-99.99,,2013-11-03 22:44:00,
2013-11-03 13:49:00,43.8,42.4,17.66,North,0,0.0,-999.0,94,0.00,,,-99.99,,2013-11-03 22:49:00,
2013-11-03 13:54:00,44.5,43.2,17.66,North,0,0.0,-999.0,94,0.00,,,-99.99,,2013-11-03 22:54:00,
2013-11-03 13:59:00,43.9,42.3,17.66,North,0,0.0,-999.0,94,0.00,,,-99.99,,2013-11-03 22:59:00,
2013-11-03 14:04:00,43.9,42.4,17.67,North,0,0.0,-999.0,94,0.00,,,-99.99,,2013-11-03 23:04:00,
2013-11-03 14:09:00,44.0,42.4,17.67,North,0,0.0,-999.0,94,0.00,,,-99.99,,2013-11-03 23:09:00,
2013-11-03 14:14:00,44.1,42.6,17.67,North,0,0.0,-999.0,94,0.00,,,-99.99,,2013-11-03 23:14:00,
2013-11-03 14:19:00,44.5,43.0,17.67,North,0,0.0,-999.0,94,0.00,,,-99.99,,2013-11-03 23:19:00,
2013-11-03 14:24:00,43.9,42.2,17.67,North,0,0.0,-999.0,93,0.00,,,-99.99,,2013-11-03 23:24:00,
2013-11-03 14:29:00,43.8,42.3,17.67,North,0,0.0,-999.0,94,0.00,,,-99.99,,2013-11-03 23:29:00,
2013-11-03 14:34:00,44.0,42.5,17.67,North,0,0.0,-999.0,94,0.00,,,-99.99,,2013-11-03 23:34:00,
2013-11-03 14:39:00,44.1,42.6,17.67,North,0,0.0,-999.0,94,0.00,,,-99.99,,2013-11-03 23:39:00,
2013-11-03 14:44:00,44.3,42.8,17.67,North,0,0.0,-999.0,94,0.00,,,-99.99,,2013-11-03 23:44:00,
2013-11-03 14:49:00,43.9,42.2,17.67,North,0,0.0,-999.0,93,0.00,,,-99.99,,2013-11-03 23:49:00,
2013-11-03 14:54:00,43.8,42.3,17.67,North,0,0.0,-999.0,94,0.00,,,-99.99,,2013-11-03 23:54:00,
2013-11-03 14:59:00,43.8,42.2,17.67,North,0,0.0,-999.0,94,0.00,,,-99.99,,2013-11-03 23:59:00,
2013-11-03 15:04:00,43.8,42.2,17.68,North,0,0.0,-999.0,94,0.00,,,-99.99,,2013-11-04 00:04:00,
2013-11-03 15:09:00,43.7,42.2,17.68,North,0,0.0,-999.0,94,0.00,,,-99.99,,2013-11-04 00:09:00,
2013-11-03 15:14:00,43.6,42.1,17.68,North,0,0.0,-999.0,94,0.00,,,-99.99,,2013-11-04 00:14:00,
2013-11-03 15:19:00,43.5,42.0,17.68,North,0,0.0,-999.0,94,0.00,,,-99.99,,2013-11-04 00:19:00,
2013-11-03 15:24:00,43.5,42.0,17.68,North,0,0.0,-999.0,94,0.00,,,-99.99,,2013-11-04 00:24:00,
2013-11-03 15:29:00,43.7,42.3,17.68,North,0,0.0,-999.0,94,0.00,,,-99.99,,2013-11-04 00:29:00,
2013-11-03 15:34:00,43.7,42.2,17.68,North,0,0.0,-999.0,94,0.00,,,-99.99,,2013-11-04 00:34:00,
2013-11-03 15:39:00,43.5,42.0,17.68,North,0,0.0,-999.0,94,0.00,,,-99.99,,2013-11-04 00:39:00,
2013-11-03 15:44:00,43.6,42.2,17.68,North,0,0.0,-999.0,94,0.00,,,-99.99,,2013-11-04 00:44:00,
2013-11-03 15:49:00,43.5,42.2,17.68,North,0,0.0,-999.0,94,0.00,,,-99.99,,2013-11-04 00:49:00,
2013-11-03 15:54:00,43.4,42.0,17.68,North,0,0.0,-999.0,94,0.00,,,-99.99,,2013-11-04 00:54:00,
2013-11-03 15:59:00,43.5,42.0,17.68,North,0,0.0,-999.0,94,0.00,,,-99.99,,2013-11-04 00:59:00,
2013-11-03 16:04:00,43.3,41.9,17.69,North,0,0.0,-999.0,94,0.00,,,-99.99,,2013-11-04 01:04:00,
2013-11-03 16:09:00,43.2,41.8,17.69,North,0,0.0,-999.0,94,0.00,,,-99.99,,2013-11-04 01:09:00,
2013-11-03 16:14:00,43.3,41.9,17.69,North,0,0.0,-999.0,94,0.00,,,-99.99,,2013-11-04 01:14:00,
2013-11-03 16:19:00,43.2,41.8,17.69,North,0,0.0,-999.0,94,0.00,,,-99.99,,2013-11-04 01:19:00,
2013-11-03 16:24:00,43.2,41.8,17.69,North,0,0.0,-999.0,94,0.00,,,-99.99,,2013-11-04 01:24:00,
2013-11-03 16:29:00,43.3,41.9,17.69,North,0,0.0,-999.0,94,0.00,,,-99.99,,2013-11-04 01:29:00,
2013-11-03 16:34:00,43.3,41.8,17.69,North,0,0.0,-999.0,94,0.00,,,-99.99,,2013-11-04 01:34:00,
2013-11-03 16:39:00,43.2,41.8,17.69,North,0,0.0,-999.0,94,0.00,,,-99.99,,2013-11-04 01:39:00,
2013-11-03 16:44:00,43.4,42.0,17.69,North,0,0.0,-999.0,94,0.00,,,-99.99,,2013-11-04 01:44:00,
2013-11-03 16:49:00,43.3,41.9,17.69,North,0,0.0,-999.0,94,0.00,,,-99.99,,2013-11-04 01:49:00,
2013-11-03 16:54:00,43.2,41.7,17.69,North,0,0.0,-999.0,94,0.00,,,-99.99,,2013-11-04 01:54:00,
2013-11-03 16:59:00,43.3,41.7,17.69,North,0,0.0,-999.0,94,0.00,,,-99.99,,2013-11-04 01:59:00,
2013-11-03 17:04:00,43.3,41.8,17.69,North,0,0.0,-999.0,94,0.00,,,-99.99,,2013-11-04 02:04:00,
2013-11-03 17:09:00,43.2,41.6,17.69,North,0,0.0,-999.0,94,0.00,,,-99.99,,2013-11-04 02:09:00,
2013-11-03 17:14:00,43.2,41.8,17.69,North,0,0.0,-999.0,94,0.00,,,-99.99,,2013-11-04 02:14:00,
2013-11-03 17:19:00,43.1,41.7,17.69,North,0,0.0,-999.0,94,0.00,,,-99.99,,2013-11-04 02:19:00,
2013-11-03 17:24:00,42.9,41.5,17.69,North,0,0.0,-999.0,94,0.00,,,-99.99,,2013-11-04 02:24:00,
2013-11-03 17:29:00,42.9,41.7,17.69,North,0,0.0,-999.0,95,0.00,,,-99.99,,2013-11-04 02:29:00,
2013-11-03 17:34:00,42.7,41.5,17.69,North,0,0.0,-999.0,95,0.00,,,-99.99,,2013-11-04 02:34:00,
2013-11-03 17:39:00,42.4,41.1,17.69,North,0,0.0,-999.0,95,0.00,,,-99.99,,2013-11-04 02:39:00,
2013-11-03 17:44:00,42.4,41.2,17.69,North,0,0.0,-999.0,95,0.00,,,-99.99,,2013-11-04 02:44:00,
2013-11-03 17:49:00,42.5,41.3,17.69,North,0,0.0,-999.0,95,0.00,,,-99.99,,2013-11-04 02:49:00,
2013-11-03 17:54:00,42.5,41.4,17.69,North,0,0.0,-999.0,95,0.00,,,-99.99,,2013-11-04 02:54:00,
2013-11-03 17:59:00,42.7,41.6,17.69,North,0,0.0,-999.0,95,0.00,,,-99.99,,2013-11-04 02:59:00,
2013-11-03 18:04:00,42.8,41.7,17.70,North,0,0.0,-999.0,95,0.00,,,-99.99,,2013-11-04 03:04:00,
2013-11-03 18:09:00,42.7,41.6,17.70,North,0,0.0,-999.0,95,0.00,,,-99.99,,2013-11-04 03:09:00,
2013-11-03 18:14:00,42.7,41.6,17.70,North,0,0.0,-999.0,95,0.00,,,-99.99,,2013-11-04 03:14:00,
2013-11-03 18:19:00,42.8,41.6,17.70,North,0,0.0,-999.0,95,0.00,,,-99.99,,2013-11-04 03:19:00,
2013-11-03 18:24:00,42.8,41.6,17.70,North,0,0.0,-999.0,95,0.00,,,-99.99,,2013-11-04 03:24:00,
2013-11-03 18:29:00,42.9,41.7,17.70,North,0,0.0,-999.0,95,0.00,,,-99.99,,2013-11-04 03:29:00,
2013-11-03 18:34:00,42.6,41.5,17.70,North,0,0.0,-999.0,95,0.00,,,-99.99,,2013-11-04 03:34:00,
2013-11-03 18:39:00,42.7,41.6,17.70,North,0,0.0,-999.0,95,0.00,,,-99.99,,2013-11-04 03:39:00,
2013-11-03 18:44:00,42.5,41.4,17.70,North,0,0.0,-999.0,95,0.00,,,-99.99,,2013-11-04 03:44:00,
2013-11-03 18:49:00,42.4,41.2,17.70,North,0,0.0,-999.0,95,0.00,,,-99.99,,2013-11-04 03:49:00,
2013-11-03 18:54:00,42.4,41.3,17.70,North,0,0.0,-999.0,95,0.00,,,-99.99,,2013-11-04 03:54:00,
2013-11-03 18:59:00,42.5,41.4,17.70,North,0,0.0,-999.0,95,0.00,,,-99.99,,2013-11-04 03:59:00,
2013-11-03 19:02:00,42.2,41.2,17.70,North,0,0.0,-999.0,95,0.00,,,-99.99,,2013-11-04 04:02:00,
2013-11-03 19:03:00,42.2,41.2,17.70,North,0,0.0,-999.0,95,0.00,,,-99.99,,2013-11-04 04:03:00,
2013-11-03 19:04:00,42.4,41.2,17.70,North,0,0.0,-999.0,95,0.00,,,-99.99,,2013-11-04 04:04:00,
2013-11-03 19:05:00,42.3,41.2,17.70,North,0,0.0,-999.0,95,0.00,,,-99.99,,2013-11-04 04:05:00,
2013-11-03 19:06:00,42.2,41.1,17.70,North,0,0.0,-999.0,95,0.00,,,-99.99,,2013-11-04 04:06:00,
2013-11-03 19:07:00,42.3,41.2,17.70,North,0,0.0,-999.0,95,0.00,,,-99.99,,2013-11-04 04:07:00,
2013-11-03 19:08:00,42.4,41.3,17.70,North,0,0.0,-999.0,95,0.00,,,-99.99,,2013-11-04 04:08:00,
2013-11-03 19:09:00,42.5,41.4,17.70,North,0,0.0,-999.0,95,0.00,,,-99.99,,2013-11-04 04:09:00,
2013-11-03 19:10:00,42.3,41.2,17.70,North,0,0.0,-999.0,95,0.00,,,-99.99,,2013-11-04 04:10:00,
2013-11-03 19:11:00,42.4,41.3,17.70,North,0,0.0,-999.0,95,0.00,,,-99.99,,2013-11-04 04:11:00,
2013-11-03 19:12:00,42.3,41.2,17.70,North,0,0.0,-999.0,95,0.00,,,-99.99,,2013-11-04 04:12:00,
2013-11-03 19:13:00,42.3,41.2,17.70,North,0,0.0,-999.0,95,0.00,,,-99.99,,2013-11-04 04:13:00,
2013-11-03 19:14:00,42.4,41.3,17.70,North,0,0.0,-999.0,95,0.00,,,-99.99,,2013-11-04 04:14:00,
2013-11-03 19:15:00,42.4,41.3,17.70,North,0,0.0,-999.0,95,0.00,,,-99.99,,2013-11-04 04:15:00,
2013-11-03 19:16:00,42.4,41.3,17.70,North,0,0.0,-999.0,96,0.00,,,-99.99,,2013-11-04 04:16:00,
2013-11-03 19:17:00,42.4,41.3,17.70,North,0,0.0,-999.0,96,0.00,,,-99.99,,2013-11-04 04:17:00,
2013-11-03 19:18:00,42.5,41.5,17.70,North,0,0.0,-999.0,96,0.00,,,-99.99,,2013-11-04 04:18:00,
2013-11-03 19:19:00,42.6,41.6,17.70,North,0,0.0,-999.0,96,0.00,,,-99.99,,2013-11-04 04:19:00,
2013-11-03 19:20:00,42.5,41.4,17.70,North,0,0.0,-999.0,95,0.00,,,-99.99,,2013-11-04 04:20:00,
2013-11-03 19:21:00,42.5,41.4,17.70,North,0,0.0,-999.0,95,0.00,,,-99.99,,2013-11-04 04:21:00,
2013-11-03 19:22:00,42.4,41.3,17.70,North,0,0.0,-999.0,95,0.00,,,-99.99,,2013-11-04 04:22:00,
2013-11-03 19:23:00,42.5,41.5,17.70,North,0,0.0,-999.0,95,0.00,,,-99.99,,2013-11-04 04:23:00,
2013-11-03 19:24:00,42.6,41.5,17.70,North,0,0.0,-999.0,95,0.00,,,-99.99,,2013-11-04 04:24:00,
2013-11-03 19:25:00,42.4,41.3,17.70,North,0,0.0,-999.0,95,0.00,,,-99.99,,2013-11-04 04:25:00,
2013-11-03 19:26:00,42.2,41.2,17.70,North,0,0.0,-999.0,95,0.00,,,-99.99,,2013-11-04 04:26:00,
2013-11-03 19:27:00,42.4,41.3,17.70,North,0,0.0,-999.0,95,0.00,,,-99.99,,2013-11-04 04:27:00,
2013-11-03 19:28:00,42.4,41.4,17.70,North,0,0.0,-999.0,96,0.00,,,-99.99,,2013-11-04 04:28:00,
2013-11-03 19:29:00,42.7,41.6,17.70,North,0,0.0,-999.0,95,0.00,,,-99.99,,2013-11-04 04:29:00,
2013-11-03 19:30:00,42.5,41.5,17.70,North,0,0.0,-999.0,95,0.00,,,-99.99,,2013-11-04 04:30:00,
2013-11-03 19:31:00,42.6,41.5,17.70,North,0,0.0,-999.0,95,0.00,,,-99.99,,2013-11-04 04:31:00,
2013-11-03 19:32:00,42.5,41.5,17.70,North,0,0.0,-999.0,96,0.00,,,-99.99,,2013-11-04 04:32:00,
2013-11-03 19:33:00,42.5,41.5,17.70,North,0,0.0,-999.0,96,0.00,,,-99.99,,2013-11-04 04:33:00,
2013-11-03 19:34:00,42.4,41.3,17.70,North,0,0.0,-999.0,95,0.00,,,-99.99,,2013-11-04 04:34:00,
2013-11-03 19:35:00,42.4,41.3,17.70,North,0,0.0,-999.0,95,0.00,,,-99.99,,2013-11-04 04:35:00,
2013-11-03 19:36:00,42.4,41.3,17.70,North,0,0.0,-999.0,95,0.00,,,-99.99,,2013-11-04 04:36:00,
2013-11-03 19:37:00,42.2,41.2,17.70,North,0,0.0,-999.0,95,0.00,,,-99.99,,2013-11-04 04:37:00,
2013-11-03 19:38:00,42.5,41.4,17.70,North,0,0.0,-999.0,95,0.00,,,-99.99,,2013-11-04 04:38:00,
2013-11-03 19:39:00,42.2,41.1,17.70,North,0,0.0,-999.0,95,0.00,,,-99.99,,2013-11-04 04:39:00,
2013-11-03 19:40:00,42.5,41.5,17.70,North,0,0.0,-999.0,96,0.00,,,-99.99,,2013-11-04 04:40:00,
2013-11-03 19:41:00,42.6,41.6,17.70,North,0,0.0,-999.0,96,0.00,,,-99.99,,2013-11-04 04:41:00,
2013-11-03 19:42:00,42.5,41.5,17.70,North,0,0.0,-999.0,96,0.00,,,-99.99,,2013-11-04 04:42:00,
2013-11-03 19:43:00,42.5,41.5,17.70,North,0,0.0,-999.0,95,0.00,,,-99.99,,2013-11-04 04:43:00,
2013-11-03 19:44:00,42.5,41.4,17.70,North,0,0.0,-999.0,95,0.00,,,-99.99,,2013-11-04 04:44:00,
2013-11-03 19:45:00,42.5,41.5,17.70,North,0,0.0,-999.0,96,0.00,,,-99.99,,2013-11-04 04:45:00,
2013-11-03 19:46:00,42.6,41.6,17.70,North,0,0.0,-999.0,96,0.00,,,-99.99,,2013-11-04 04:46:00,
2013-11-03 19:47:00,42.4,41.4,17.70,North,0,0.0,-999.0,96,0.00,,,-99.99,,2013-11-04 04:47:00,
2013-11-03 19:48:00,42.5,41.5,17.70,North,0,0.0,-999.0,96,0.00,,,-99.99,,2013-11-04 04:48:00,
2013-11-03 19:49:00,42.4,41.3,17.70,North,0,0.0,-999.0,95,0.00,,,-99.99,,2013-11-04 04:49:00,
2013-11-03 19:50:00,42.5,41.5,17.70,North,0,0.0,-999.0,96,0.00,,,-99.99,,2013-11-04 04:50:00,
2013-11-03 19:51:00,42.5,41.6,17.70,North,0,0.0,-999.0,96,0.00,,,-99.99,,2013-11-04 04:51:00,
2013-11-03 19:52:00,42.5,41.5,17.70,North,0,0.0,-999.0,96,0.00,,,-99.99,,2013-11-04 04:52:00,
2013-11-03 19:53:00,42.7,41.7,17.70,North,0,0.0,-999.0,96,0.00,,,-99.99,,2013-11-04 04:53:00,
2013-11-03 19:54:00,42.2,41.1,17.70,North,0,0.0,-999.0,95,0.00,,,-99.99,,2013-11-04 04:54:00,
2013-11-03 19:55:00,42.5,41.5,17.70,North,0,0.0,-999.0,96,0.00,,,-99.99,,2013-11-04 04:55:00,
2013-11-03 19:56:00,42.7,41.7,17.70,North,0,0.0,-999.0,96,0.00,,,-99.99,,2013-11-04 04:56:00,
2013-11-03 19:57:00,42.6,41.6,17.70,North,0,0.0,-999.0,96,0.00,,,-99.99,,2013-11-04 04:57:00,
2013-11-03 19:58:00,42.6,41.6,17.70,North,0,0.0,-999.0,96,0.00,,,-99.99,,2013-11-04 04:58:00,
2013-11-03 19:59:00,42.2,41.1,17.70,North,0,0.0,-999.0,95,0.00,,,-99.99,,2013-11-04 04:59:00,
2013-11-03 20:00:00,42.6,41.6,17.69,North,0,0.0,-999.0,96,0.00,,,-99.99,,2013-11-04 05:00:00,
2013-11-03 20:01:00,42.7,41.7,17.69,North,0,0.0,-999.0,96,0.00,,,-99.99,,2013-11-04 05:01:00,
2013-11-03 20:02:00,42.7,41.7,17.69,North,0,0.0,-999.0,96,0.00,,,-99.99,,2013-11-04 05:02:00,
2013-11-03 20:03:00,42.8,41.8,17.69,North,0,0.0,-999.0,96,0.00,,,-99.99,,2013-11-04 05:03:00,
2013-11-03 20:04:00,42.9,41.9,17.69,North,0,0.0,-999.0,96,0.00,,,-99.99,,2013-11-04 05:04:00,
2013-11-03 20:05:00,42.8,41.8,17.69,North,0,0.0,-999.0,96,0.00,,,-99.99,,2013-11-04 05:05:00,
2013-11-03 20:09:00,42.7,41.7,17.69,North,0,0.0,-999.0,96,0.00,,,-99.99,,2013-11-04 05:09:00,
2013-11-03 20:11:00,42.8,41.8,17.69,North,0,0.0,-999.0,96,0.00,,,-99.99,,2013-11-04 05:11:00,
2013-11-03 20:12:00,42.7,41.7,17.69,North,0,0.0,-999.0,96,0.00,,,-99.99,,2013-11-04 05:12:00,
2013-11-03 20:13:00,42.7,41.7,17.69,North,0,0.0,-999.0,96,0.00,,,-99.99,,2013-11-04 05:13:00,
2013-11-03 20:14:00,42.8,41.9,17.69,North,0,0.0,-999.0,96,0.00,,,-99.99,,2013-11-04 05:14:00,
2013-11-03 20:19:00,42.7,41.7,17.69,North,0,0.0,-999.0,96,0.00,,,-99.99,,2013-11-04 05:19:00,
2013-11-03 20:20:00,42.7,41.7,17.69,North,0,0.0,-999.0,96,0.00,,,-99.99,,2013-11-04 05:20:00,
2013-11-03 20:21:00,42.7,41.8,17.69,North,0,0.0,-999.0,96,0.00,,,-99.99,,2013-11-04 05:21:00,
2013-11-03 20:22:00,42.8,41.9,17.69,North,0,0.0,-999.0,96,0.00,,,-99.99,,2013-11-04 05:22:00,
2013-11-03 20:25:00,42.8,41.8,17.69,North,0,0.0,-999.0,96,0.00,,,-99.99,,2013-11-04 05:25:00,
2013-11-03 20:27:00,42.7,41.7,17.69,North,0,0.0,-999.0,96,0.00,,,-99.99,,2013-11-04 05:27:00,
2013-11-03 20:28:00,42.5,41.6,17.69,North,0,0.0,-999.0,96,0.00,,,-99.99,,2013-11-04 05:28:00,
2013-11-03 20:29:00,42.7,41.7,17.69,North,0,0.0,-999.0,96,0.00,,,-99.99,,2013-11-04 05:29:00,
2013-11-03 20:30:00,42.7,41.7,17.69,North,0,0.0,-999.0,96,0.01,,,-99.99,,2013-11-04 05:30:00,
2013-11-03 20:31:00,42.9,41.9,17.69,North,0,0.0,-999.0,96,0.00,,,-99.99,,2013-11-04 05:31:00,
2013-11-03 20:32:00,42.6,41.6,17.69,North,0,0.0,-999.0,96,0.00,,,-99.99,,2013-11-04 05:32:00,
2013-11-03 20:34:00,42.7,41.7,17.69,North,0,0.0,-999.0,96,0.00,,,-99.99,,2013-11-04 05:34:00,
2013-11-03 20:35:00,43.0,42.0,17.69,North,0,0.0,-999.0,96,0.00,,,-99.99,,2013-11-04 05:35:00,
2013-11-03 20:38:00,42.7,41.8,17.69,North,0,0.0,-999.0,96,0.00,,,-99.99,,2013-11-04 05:38:00,
2013-11-03 20:40:00,42.7,41.8,17.69,North,0,0.0,-999.0,96,0.00,,,-99.99,,2013-11-04 05:40:00,
2013-11-03 20:41:00,42.8,41.8,17.69,North,0,0.0,-999.0,96,0.00,,,-99.99,,2013-11-04 05:41:00,
2013-11-03 20:43:00,42.7,41.7,17.69,North,0,0.0,-999.0,96,0.00,,,-99.99,,2013-11-04 05:43:00,
2013-11-03 20:59:00,42.7,41.8,17.69,North,0,0.0,-999.0,96,0.00,,,-99.99,,2013-11-04 05:59:00,
2013-11-03 21:00:00,42.7,41.8,17.69,North,0,0.0,-999.0,96,0.00,,,-99.99,,2013-11-04 06:00:00,
2013-11-03 21:04:00,42.6,41.7,17.69,North,0,0.0,-999.0,96,0.00,,,-99.99,,2013-11-04 06:04:00,
2013-11-03 21:06:00,42.7,41.7,17.69,North,0,0.0,-999.0,96,0.00,,,-99.99,,2013-11-04 06:06:00,
2013-11-03 21:12:00,42.7,41.8,17.69,North,0,0.0,-999.0,96,0.00,,,-99.99,,2013-11-04 06:12:00,
2013-11-03 21:15:00,42.9,42.0,17.69,North,0,0.0,-999.0,96,0.00,,,-99.99,,2013-11-04 06:15:00,
2013-11-03 21:16:00,42.7,41.8,17.69,North,0,0.0,-999.0,96,0.00,,,-99.99,,2013-11-04 06:16:00,
2013-11-03 21:17:00,42.8,41.9,17.69,North,0,0.0,-999.0,96,0.00,,,-99.99,,2013-11-04 06:17:00,
2013-11-03 21:18:00,42.5,41.6,17.69,North,0,0.0,-999.0,96,0.00,,,-99.99,,2013-11-04 06:18:00,
2013-11-03 21:20:00,42.6,41.7,17.69,North,0,0.0,-999.0,96,0.00,,,-99.99,,2013-11-04 06:20:00,
2013-11-03 21:22:00,42.7,41.7,17.69,North,0,0.0,-999.0,96,0.00,,,-99.99,,2013-11-04 06:22:00,
2013-11-03 21:23:00,42.7,41.7,17.69,North,0,0.0,-999.0,96,0.00,,,-99.99,,2013-11-04 06:23:00,
2013-11-03 21:24:00,42.7,41.7,17.69,North,0,0.0,-999.0,96,0.00,,,-99.99,,2013-11-04 06:24:00,
2013-11-03 21:25:00,42.5,41.6,17.69,North,0,0.0,-999.0,96,0.00,,,-99.99,,2013-11-04 06:25:00,
2013-11-03 21:26:00,42.7,41.8,17.69,North,0,0.0,-999.0,96,0.00,,,-99.99,,2013-11-04 06:26:00,
2013-11-03 21:33:00,42.8,41.8,17.69,North,0,0.0,-999.0,96,0.00,,,-99.99,,2013-11-04 06:33:00,
2013-11-03 21:39:00,42.6,41.6,17.69,North,0,0.0,-999.0,96,0.00,,,-99.99,,2013-11-04 06:39:00,
2013-11-03 21:41:00,42.4,41.5,17.69,North,0,0.0,-999.0,96,0.00,,,-99.99,,2013-11-04 06:41:00,
2013-11-03 21:43:00,42.3,41.3,17.69,North,0,0.0,-999.0,96,0.00,,,-99.99,,2013-11-04 06:43:00,
2013-11-03 21:44:00,42.6,41.7,17.69,North,0,0.0,-999.0,96,0.00,,,-99.99,,2013-11-04 06:44:00,
2013-11-03 21:46:00,42.7,41.7,17.69,North,0,0.0,-999.0,96,0.00,,,-99.99,,2013-11-04 06:46:00,
2013-11-03 21:47:00,42.6,41.7,17.69,North,0,0.0,-999.0,96,0.00,,,-99.99,,2013-11-04 06:47:00,
2013-11-03 21:49:00,42.7,41.8,17.69,North,0,0.0,-999.0,96,0.00,,,-99.99,,2013-11-04 06:49:00,
2013-11-03 21:53:00,42.4,41.5,17.69,North,0,0.0,-999.0,96,0.00,,,-99.99,,2013-11-04 06:53:00,
2013-11-03 21:54:00,42.6,41.7,17.69,North,0,0.0,-999.0,96,0.00,,,-99.99,,2013-11-04 06:54:00,
2013-11-03 22:01:00,42.7,41.8,17.69,North,0,0.0,-999.0,96,0.00,,,-99.99,,2013-11-04 07:01:00,
2013-11-03 22:02:00,42.5,41.6,17.69,North,0,0.0,-999.0,96,0.00,,,-99.99,,2013-11-04 07:02:00,
2013-11-03 22:04:00,42.5,41.5,17.69,North,0,0.0,-999.0,96,0.00,,,-99.99,,2013-11-04 07:04:00,
2013-11-03 22:07:00,42.7,41.8,17.69,North,0,0.0,-999.0,96,0.00,,,-99.99,,2013-11-04 07:07:00,
2013-11-03 22:09:00,42.4,41.5,17.69,North,0,0.0,-999.0,96,0.00,,,-99.99,,2013-11-04 07:09:00,
2013-11-03 22:10:00,42.2,41.3,17.69,North,0,0.0,-999.0,96,0.00,,,-99.99,,2013-11-04 07:10:00,
2013-11-03 22:12:00,42.4,41.5,17.69,North,0,0.0,-999.0,96,0.00,,,-99.99,,2013-11-04 07:12:00,
2013-11-03 22:13:00,42.7,41.8,17.69,North,0,0.0,-999.0,96,0.00,,,-99.99,,2013-11-04 07:13:00,
2013-11-03 22:14:00,42.4,41.5,17.69,North,0,0.0,-999.0,96,0.00,,,-99.99,,2013-11-04 07:14:00,
2013-11-03 22:17:00,42.5,41.6,17.69,North,0,0.0,-999.0,96,0.00,,,-99.99,,2013-11-04 07:17:00,
2013-11-03 22:19:00,42.8,41.8,17.69,North,0,0.0,-999.0,96,0.00,,,-99.99,,2013-11-04 07:19:00,
2013-11-03 22:21:00,42.3,41.4,17.69,North,0,0.0,-999.0,96,0.00,,,-99.99,,2013-11-04 07:21:00,
2013-11-03 22:24:00,42.2,41.2,17.69,North,0,0.0,-999.0,96,0.00,,,-99.99,,2013-11-04 07:24:00,
2013-11-03 22:27:00,42.7,41.7,17.69,North,0,0.0,-999.0,96,0.00,,,-99.99,,2013-11-04 07:27:00,
2013-11-03 22:30:00,42.2,41.3,17.69,North,0,0.0,-999.0,96,0.00,,,-99.99,,2013-11-04 07:30:00,
2013-11-03 22:32:00,42.6,41.7,17.69,North,0,0.0,-999.0,96,0.00,,,-99.99,,2013-11-04 07:32:00,
2013-11-03 22:33:00,42.1,41.2,17.69,North,0,0.0,-999.0,96,0.00,,,-99.99,,2013-11-04 07:33:00,
2013-11-03 22:34:00,42.1,41.2,17.69,North,0,0.0,-999.0,96,0.00,,,-99.99,,2013-11-04 07:34:00,
2013-11-03 22:37:00,42.5,41.5,17.69,North,0,0.0,-999.0,96,0.00,,,-99.99,,2013-11-04 07:37:00,
2013-11-03 22:42:00,42.4,41.5,17.69,North,0,0.0,-999.0,96,0.00,,,-99.99,,2013-11-04 07:42:00,
2013-11-03 22:48:00,42.6,41.7,17.69,North,0,0.0,-999.0,96,0.00,,,-99.99,,2013-11-04 07:48:00,
2013-11-03 22:54:00,42.5,41.6,17.69,North,0,0.0,-999.0,96,0.00,,,-99.99,,2013-11-04 07:54:00,
2013-11-03 22:59:00,42.5,41.5,17.69,North,0,0.0,-999.0,96,0.00,,,-99.99,,2013-11-04 07:59:00,
2013-11-03 23:05:00,42.4,41.4,17.69,North,0,0.0,-999.0,96,0.00,,,-99.99,,2013-11-04 08:05:00,
2013-11-03 23:11:00,42.5,41.7,17.69,North,0,0.0,-999.0,96,0.00,,,-99.99,,2013-11-04 08:11:00,
2013-11-03 23:16:00,42.4,41.5,17.69,North,0,0.0,-999.0,96,0.00,,,-99.99,,2013-11-04 08:16:00,
2013-11-03 23:22:00,42.3,41.4,17.69,North,0,0.0,-999.0,96,0.00,,,-99.99,,2013-11-04 08:22:00,
2013-11-03 23:27:00,42.2,41.3,17.69,North,0,0.0,-999.0,96,0.00,,,-99.99,,2013-11-04 08:27:00,
2013-11-03 23:32:00,42.0,41.1,17.69,North,0,0.0,-999.0,96,0.00,,,-99.99,,2013-11-04 08:32:00,
2013-11-03 23:37:00,42.2,41.3,17.69,North,0,0.0,-999.0,96,0.00,,,-99.99,,2013-11-04 08:37:00,
2013-11-03 23:42:00,42.4,41.5,17.69,North,0,0.0,-999.0,96,0.00,,,-99.99,,2013-11-04 08:42:00,
2013-11-03 23:47:00,41.9,41.0,17.69,North,0,0.0,-999.0,96,0.00,,,-99.99,,2013-11-04 08:47:00,
2013-11-03 23:52:00,42.1,41.3,17.69,North,0,0.0,-999.0,96,0.00,,,-99.99,,2013-11-04 08:52:00,
2013-11-03 23:57:00,42.2,41.3,17.69,North,0,0.0,-999.0,96,0.00,,,-99.99,,2013-11-04 08:57:00,